Time;durP1;ratioP1;P1;durP2;ratioP2;P2;SDS_P1;SDS_P2;PMS_P1;PMS_P2;Temp;Humidity;BMP_temperature;BMP_pressure;BME280_temperature;BME280_humidity;BME280_pressure;Samples;Min_cycle;Max_cycle;Signal;HPM_P1;HPM_P2
2023/05/30 00:01:00;;;;;;;6.50;2.30;;;20.40;99.90;;;;;;5052451;28;20191;-72
2023/05/30 00:03:28;;;;;;;10.87;2.33;;;20.60;99.90;;;;;;5056939;28;20322;-69
2023/05/30 00:05:56;;;;;;;7.13;2.30;;;20.60;99.90;;;;;;5052674;28;20275;-70
2023/05/30 00:08:23;;;;;;;9.93;2.27;;;20.20;99.90;;;;;;5052646;28;20271;-71
2023/05/30 00:10:51;;;;;;;10.07;2.13;;;20.30;99.90;;;;;;5052495;28;20233;-71
2023/05/30 00:13:22;;;;;;;5.43;1.60;;;20.80;99.90;;;;;;5052165;28;20542;-67
2023/05/30 00:15:51;;;;;;;7.50;2.10;;;20.40;99.90;;;;;;5051781;28;20188;-70
2023/05/30 00:18:22;;;;;;;9.30;2.40;;;20.80;99.90;;;;;;5052136;28;20172;-72
2023/05/30 00:20:50;;;;;;;8.97;2.60;;;21.60;99.90;;;;;;5051583;28;20225;-72
2023/05/30 00:23:20;;;;;;;6.83;2.27;;;21.30;99.90;;;;;;5052205;28;20164;-71
2023/05/30 00:25:48;;;;;;;13.13;2.10;;;21.10;99.90;;;;;;5051184;28;20203;-72
2023/05/30 00:28:16;;;;;;;2.47;1.40;;;21.00;99.90;;;;;;5051432;28;20188;-72
2023/05/30 00:30:44;;;;;;;8.53;1.80;;;21.40;99.90;;;;;;5051960;28;20350;-72
2023/05/30 00:33:12;;;;;;;4.90;1.70;;;21.10;99.90;;;;;;5052025;28;20182;-72
2023/05/30 00:35:41;;;;;;;20.97;2.30;;;21.20;99.90;;;;;;5051625;28;20186;-72
2023/05/30 00:38:08;;;;;;;3.30;1.30;;;21.30;99.90;;;;;;5032625;28;20634;-71
2023/05/30 00:40:36;;;;;;;5.60;1.10;;;21.70;99.90;;;;;;5051051;28;20188;-72
2023/05/30 00:43:04;;;;;;;6.83;1.40;;;21.80;99.90;;;;;;5050968;28;20179;-71
2023/05/30 00:45:32;;;;;;;3.80;1.40;;;22.30;99.70;;;;;;5051936;28;20282;-73
2023/05/30 00:48:00;;;;;;;2.37;1.00;;;22.50;97.10;;;;;;5052037;28;20195;-73
2023/05/30 00:53:50;;;;;;;2.17;0.73;;;22.50;97.30;;;;;;5051189;28;20200;-73
2023/05/30 00:56:18;;;;;;;4.77;1.63;;;22.10;96.10;;;;;;5051845;28;20191;-73
2023/05/30 00:59:25;;;;;;;1.60;0.80;;;22.20;96.10;;;;;;5051590;28;20275;-73
2023/05/30 01:01:53;;;;;;;3.83;1.10;;;22.50;94.80;;;;;;5051771;28;20180;-72
2023/05/30 01:04:20;;;;;;;7.43;1.20;;;22.20;94.90;;;;;;5051791;28;20181;-71
2023/05/30 01:06:48;;;;;;;2.53;0.80;;;22.20;94.40;;;;;;5052011;28;20234;-71
2023/05/30 01:09:16;;;;;;;2.00;0.90;;;22.50;95.40;;;;;;5051443;28;20185;-73
2023/05/30 01:12:02;;;;;;;3.00;0.80;;;23.10;93.60;;;;;;5051779;28;20185;-70
2023/05/30 01:14:54;;;;;;;6.30;1.10;;;22.90;92.90;;;;;;5032436;28;20538;-73
2023/05/30 01:17:45;;;;;;;3.43;1.00;;;23.10;91.90;;;;;;5046468;28;20168;-70
2023/05/30 01:20:24;;;;;;;6.33;1.13;;;22.80;92.70;;;;;;5044884;28;20250;-70
2023/05/30 01:23:20;;;;;;;4.80;1.17;;;23.00;93.20;;;;;;5051519;28;20199;-70
2023/05/30 01:26:26;;;;;;;3.27;1.17;;;23.20;91.80;;;;;;5051523;28;20176;-70
2023/05/30 01:28:56;;;;;;;3.50;1.20;;;23.80;91.70;;;;;;5050494;28;20193;-69
2023/05/30 01:31:25;;;;;;;1.43;0.80;;;23.90;90.20;;;;;;5051329;28;20712;-70
2023/05/30 01:33:54;;;;;;;3.93;1.30;;;24.20;90.00;;;;;;5051086;28;20180;-70
2023/05/30 01:36:22;;;;;;;4.30;1.27;;;23.60;89.70;;;;;;5051257;28;20172;-70
2023/05/30 01:38:50;;;;;;;5.70;1.20;;;23.30;92.10;;;;;;5051354;28;20291;-70
2023/05/30 01:41:49;;;;;;;3.70;0.80;;;23.40;92.10;;;;;;5051249;28;20508;-70
2023/05/30 01:45:02;;;;;;;3.37;0.90;;;23.60;92.90;;;;;;5051034;28;20232;-69
2023/05/30 01:47:52;;;;;;;4.37;0.90;;;23.70;91.20;;;;;;5046751;28;20176;-70
2023/05/30 01:50:29;;;;;;;4.80;1.30;;;24.10;92.10;;;;;;5051391;28;20277;-70
2023/05/30 01:56:21;;;;;;;3.50;1.27;;;23.80;88.60;;;;;;5055306;28;20219;-71
2023/05/30 01:58:51;;;;;;;2.13;0.90;;;23.60;90.40;;;;;;5055155;28;20193;-71
2023/05/30 02:01:22;;;;;;;3.47;1.17;;;23.70;91.00;;;;;;5054712;28;20188;-70
2023/05/30 02:03:49;;;;;;;3.23;1.20;;;23.50;91.50;;;;;;5048426;28;20248;-70
2023/05/30 02:06:17;;;;;;;5.30;1.23;;;23.40;92.60;;;;;;5047032;28;20189;-71
2023/05/30 02:08:44;;;;;;;4.50;1.40;;;23.50;92.80;;;;;;5054829;28;20272;-70
2023/05/30 02:11:11;;;;;;;3.77;1.43;;;23.80;92.20;;;;;;5054573;28;20235;-69
2023/05/30 02:13:39;;;;;;;2.50;1.10;;;24.10;93.20;;;;;;5054761;28;20211;-69
2023/05/30 02:16:07;;;;;;;4.90;1.30;;;24.50;89.70;;;;;;5054590;28;20180;-69
2023/05/30 02:18:35;;;;;;;2.87;0.90;;;24.60;90.50;;;;;;5054713;28;20177;-70
2023/05/30 02:21:03;;;;;;;3.10;1.07;;;24.40;90.50;;;;;;5054603;28;20196;-70
2023/05/30 02:23:30;;;;;;;3.90;1.30;;;24.50;89.20;;;;;;5054481;28;20175;-70
2023/05/30 02:25:58;;;;;;;4.77;1.33;;;24.40;90.00;;;;;;5054480;28;20185;-71
2023/05/30 02:31:47;;;;;;;6.23;1.30;;;24.80;88.10;;;;;;5054111;28;20338;-70
2023/05/30 02:34:14;;;;;;;3.87;1.07;;;25.00;83.50;;;;;;5054440;28;20204;-70
2023/05/30 02:36:43;;;;;;;3.50;0.90;;;24.80;83.80;;;;;;5054033;28;20176;-71
2023/05/30 02:39:11;;;;;;;5.53;0.87;;;24.60;85.60;;;;;;5054398;28;20181;-70
2023/05/30 02:41:39;;;;;;;5.67;0.90;;;24.70;83.50;;;;;;5055773;28;20184;-69
2023/05/30 02:44:06;;;;;;;6.53;0.90;;;24.40;84.40;;;;;;5044655;28;20283;-69
2023/05/30 02:46:34;;;;;;;6.23;0.93;;;24.90;85.20;;;;;;5016659;28;20822;-69
2023/05/30 02:49:02;;;;;;;2.10;1.00;;;25.10;82.50;;;;;;5045297;28;20747;-70
2023/05/30 02:51:31;;;;;;;2.40;0.83;;;25.00;81.00;;;;;;5054057;28;20295;-69
2023/05/30 02:53:58;;;;;;;3.20;1.17;;;25.20;81.50;;;;;;5054339;28;20210;-70
2023/05/30 02:56:25;;;;;;;4.83;1.07;;;25.00;78.90;;;;;;5054217;28;20212;-70
2023/05/30 02:58:54;;;;;;;6.10;1.03;;;24.90;81.50;;;;;;5054235;28;20189;-69
2023/05/30 03:01:21;;;;;;;3.70;1.30;;;25.20;82.50;;;;;;5054036;28;20227;-69
2023/05/30 03:03:48;;;;;;;4.83;1.30;;;24.70;80.70;;;;;;5054188;28;20168;-69
2023/05/30 03:06:17;;;;;;;6.97;1.20;;;24.80;84.50;;;;;;5052702;28;20247;-70
2023/05/30 03:08:45;;;;;;;5.10;0.97;;;24.80;83.90;;;;;;5054151;28;20184;-70
2023/05/30 03:11:12;;;;;;;4.67;1.13;;;24.70;82.20;;;;;;5053836;28;20209;-70
2023/05/30 03:13:41;;;;;;;3.70;0.93;;;24.40;84.30;;;;;;5053928;28;20207;-69
2023/05/30 03:16:08;;;;;;;3.13;0.93;;;24.70;83.50;;;;;;5053562;28;20637;-69
2023/05/30 03:18:36;;;;;;;8.33;5.63;;;24.90;81.50;;;;;;5053866;28;20184;-70
2023/05/30 03:21:03;;;;;;;2.90;0.90;;;25.40;80.80;;;;;;5053840;28;20188;-69
2023/05/30 03:23:31;;;;;;;2.87;0.70;;;25.30;76.40;;;;;;5053365;28;20176;-70
2023/05/30 03:25:58;;;;;;;3.70;0.83;;;25.30;74.50;;;;;;5053497;28;20298;-69
2023/05/30 03:28:25;;;;;;;3.27;0.63;;;25.10;74.30;;;;;;5053729;28;20181;-70
2023/05/30 03:30:55;;;;;;;1.73;0.63;;;24.50;79.30;;;;;;5053507;28;20674;-70
2023/05/30 03:33:24;;;;;;;6.83;3.40;;;24.30;80.90;;;;;;5053411;28;20172;-70
2023/05/30 03:35:51;;;;;;;9.63;5.43;;;24.20;81.20;;;;;;5053211;28;20816;-69
2023/05/30 03:38:19;;;;;;;4.60;2.67;;;24.50;82.20;;;;;;5053395;28;20179;-70
2023/05/30 03:40:46;;;;;;;3.53;1.30;;;25.20;79.70;;;;;;5053393;28;20263;-69
2023/05/30 03:43:14;;;;;;;4.43;1.67;;;25.10;74.50;;;;;;5053506;28;20181;-69
2023/05/30 03:45:41;;;;;;;6.70;3.37;;;24.60;76.50;;;;;;5052794;28;20362;-70
2023/05/30 03:48:08;;;;;;;4.80;1.50;;;24.30;80.30;;;;;;5053449;28;20226;-69
2023/05/30 03:50:36;;;;;;;4.13;2.30;;;23.90;80.80;;;;;;5053240;28;20247;-70
2023/05/30 03:53:03;;;;;;;0.70;0.50;;;23.70;83.30;;;;;;5053080;28;20172;-69
2023/05/30 03:55:31;;;;;;;25.67;13.97;;;23.40;83.80;;;;;;5052893;28;20189;-69
2023/05/30 03:57:58;;;;;;;2.30;1.17;;;23.20;87.20;;;;;;5053285;28;20638;-69
2023/05/30 04:00:25;;;;;;;8.73;3.63;;;23.30;83.90;;;;;;5053218;28;20207;-68
2023/05/30 04:02:53;;;;;;;5.50;1.40;;;23.20;86.80;;;;;;5053189;28;20622;-69
2023/05/30 04:05:21;;;;;;;3.90;1.60;;;22.90;88.80;;;;;;5052064;28;20189;-69
2023/05/30 04:07:49;;;;;;;5.70;2.80;;;22.80;90.40;;;;;;5053157;28;20180;-70
2023/05/30 04:10:16;;;;;;;1.60;0.90;;;22.80;91.20;;;;;;5052905;28;20721;-69
2023/05/30 04:12:43;;;;;;;0.87;0.80;;;22.90;90.20;;;;;;5050917;28;20219;-70
2023/05/30 04:15:11;;;;;;;3.80;2.10;;;23.30;90.40;;;;;;5052510;28;20267;-69
2023/05/30 04:17:38;;;;;;;1.87;0.93;;;23.60;87.70;;;;;;5052529;28;20203;-69
2023/05/30 04:23:28;;;;;;;3.33;0.97;;;24.10;84.90;;;;;;5031776;28;20193;-68
2023/05/30 04:25:57;;;;;;;2.70;1.60;;;24.10;83.00;;;;;;5039507;28;20261;-68
2023/05/30 04:28:27;;;;;;;3.03;1.30;;;24.10;82.40;;;;;;5051089;28;20242;-68
2023/05/30 04:30:56;;;;;;;1.90;0.90;;;23.90;77.40;;;;;;5049893;28;20735;-69
2023/05/30 04:33:24;;;;;;;3.93;1.50;;;24.10;77.70;;;;;;5051558;28;20181;-69
2023/05/30 04:35:51;;;;;;;6.50;3.40;;;24.00;80.00;;;;;;5057304;28;20735;-68
2023/05/30 04:38:20;;;;;;;1.93;0.70;;;24.20;76.50;;;;;;5051954;28;20185;-68
2023/05/30 04:40:52;;;;;;;4.33;2.10;;;24.00;74.80;;;;;;5051735;28;20211;-69
2023/05/30 04:43:19;;;;;;;5.13;2.13;;;23.70;77.20;;;;;;5053418;28;20188;-70
2023/05/30 04:45:50;;;;;;;3.70;1.00;;;23.50;79.60;;;;;;5051518;28;20310;-69
2023/05/30 04:48:18;;;;;;;5.47;2.13;;;22.90;81.20;;;;;;5052054;28;20175;-69
2023/05/30 04:50:46;;;;;;;5.60;2.00;;;22.30;83.90;;;;;;5051578;28;20212;-69
2023/05/30 04:53:17;;;;;;;4.77;1.17;;;22.10;88.40;;;;;;5051909;28;20180;-69
2023/05/30 04:55:44;;;;;;;1.57;1.00;;;22.30;90.20;;;;;;5046393;28;20198;-69
2023/05/30 04:58:15;;;;;;;2.10;1.10;;;22.60;90.00;;;;;;5051670;28;20181;-70
2023/05/30 05:00:43;;;;;;;6.13;1.60;;;22.90;88.30;;;;;;5051820;28;20180;-69
2023/05/30 05:03:11;;;;;;;1.87;0.50;;;22.80;88.80;;;;;;5051383;28;20177;-69
2023/05/30 05:05:38;;;;;;;1.93;1.20;;;;;;;;;;5050881;28;20184;-69
2023/05/30 05:08:05;;;;;;;2.87;0.50;;;23.00;85.20;;;;;;5050920;28;20180;-70
2023/05/30 05:10:33;;;;;;;0.40;0.30;;;22.80;87.10;;;;;;5051334;28;20624;-70
2023/05/30 05:13:00;;;;;;;2.77;0.90;;;22.90;87.50;;;;;;5051563;28;20190;-69
2023/05/30 05:15:27;;;;;;;3.40;1.47;;;22.70;88.70;;;;;;5051375;28;20176;-69
2023/05/30 05:17:55;;;;;;;2.40;1.00;;;22.60;90.30;;;;;;5051030;28;20628;-69
2023/05/30 05:20:22;;;;;;;2.00;0.50;;;22.50;91.40;;;;;;5051662;28;20268;-69
2023/05/30 05:22:49;;;;;;;0.90;0.40;;;22.60;91.00;;;;;;5051078;28;20231;-70
2023/05/30 05:25:17;;;;;;;2.20;0.77;;;22.10;92.60;;;;;;5051057;28;20275;-69
2023/05/30 05:27:44;;;;;;;5.07;1.73;;;21.90;93.80;;;;;;5051082;28;20198;-70
2023/05/30 05:30:12;;;;;;;2.60;1.13;;;21.60;95.80;;;;;;5050686;28;20258;-69
2023/05/30 05:32:40;;;;;;;2.83;0.60;;;21.40;96.80;;;;;;5051058;28;20185;-69
2023/05/30 05:35:08;;;;;;;4.00;1.40;;;21.30;97.30;;;;;;5051219;28;20654;-69
2023/05/30 05:37:36;;;;;;;3.50;1.23;;;21.20;99.20;;;;;;5050713;28;20235;-69
2023/05/30 05:40:07;;;;;;;2.00;0.70;;;21.10;99.90;;;;;;5033584;28;20587;-69
2023/05/30 05:42:35;;;;;;;1.87;0.70;;;20.90;99.90;;;;;;5033129;28;20188;-69
2023/05/30 05:45:02;;;;;;;1.17;0.63;;;20.80;99.90;;;;;;5050867;28;20316;-69
2023/05/30 05:47:30;;;;;;;0.90;0.50;;;20.70;99.90;;;;;;5033061;28;20519;-69
2023/05/30 05:49:57;;;;;;;4.33;0.60;;;20.70;99.90;;;;;;5021653;28;20214;-70
2023/05/30 05:52:27;;;;;;;1.27;0.70;;;20.60;99.90;;;;;;5031405;28;20264;-70
2023/05/30 05:54:55;;;;;;;2.43;1.53;;;20.50;99.90;;;;;;5039569;28;20264;-69
2023/05/30 05:57:23;;;;;;;2.20;1.00;;;20.40;99.90;;;;;;5050802;28;20177;-70
2023/05/30 05:59:50;;;;;;;1.37;0.90;;;20.40;99.90;;;;;;5049137;28;20215;-69
2023/05/30 06:02:18;;;;;;;2.27;0.63;;;20.30;99.90;;;;;;5050326;28;20184;-70
2023/05/30 06:04:47;;;;;;;1.63;0.70;;;20.30;99.90;;;;;;5050643;28;20187;-70
2023/05/30 06:07:14;;;;;;;2.30;1.10;;;20.20;99.90;;;;;;5050473;28;20244;-69
2023/05/30 06:09:42;;;;;;;2.57;0.70;;;20.10;99.90;;;;;;5032858;28;20597;-70
2023/05/30 06:12:09;;;;;;;2.43;1.07;;;20.00;99.90;;;;;;5033128;28;20189;-70
2023/05/30 06:14:37;;;;;;;3.33;1.17;;;20.00;99.90;;;;;;5032605;28;20205;-69
2023/05/30 06:17:05;;;;;;;1.83;0.83;;;19.90;99.90;;;;;;5031229;28;20171;-70
2023/05/30 06:19:32;;;;;;;2.03;0.70;;;19.90;99.90;;;;;;5030967;28;20185;-70
2023/05/30 06:22:00;;;;;;;0.80;0.67;;;19.70;99.90;;;;;;5031062;28;20176;-70
2023/05/30 06:24:27;;;;;;;2.70;0.87;;;19.70;99.90;;;;;;5044382;28;20224;-70
2023/05/30 06:26:54;;;;;;;2.70;1.07;;;19.50;99.90;;;;;;5050817;28;20180;-70
2023/05/30 06:29:22;;;;;;;4.67;0.80;;;19.40;99.90;;;;;;5050773;28;20181;-69
2023/05/30 06:31:50;;;;;;;6.00;0.80;;;19.40;99.90;;;;;;5050768;28;20196;-70
2023/05/30 06:34:17;;;;;;;1.80;0.83;;;19.10;99.90;;;;;;5050926;28;20300;-71
2023/05/30 06:36:45;;;;;;;1.77;0.90;;;19.00;99.90;;;;;;5050538;28;20202;-69
2023/05/30 06:39:15;;;;;;;2.53;1.00;;;18.80;99.90;;;;;;5049680;28;20181;-70
2023/05/30 06:41:43;;;;;;;3.57;1.97;;;18.70;99.90;;;;;;5054086;28;20853;-69
2023/05/30 06:44:11;;;;;;;18.43;16.47;;;18.50;99.90;;;;;;5035986;28;20243;-69
2023/05/30 06:46:38;;;;;;;12.03;10.83;;;18.30;99.90;;;;;;5054103;28;20177;-69
2023/05/30 06:49:06;;;;;;;12.60;10.47;;;18.20;99.90;;;;;;5053224;28;20183;-68
2023/05/30 06:51:33;;;;;;;10.50;7.90;;;18.10;99.90;;;;;;5053416;28;20206;-69
2023/05/30 06:54:00;;;;;;;5.43;4.00;;;17.90;99.90;;;;;;5045988;28;20168;-69
2023/05/30 06:56:28;;;;;;;5.47;2.33;;;17.90;99.90;;;;;;5064697;28;20177;-69
2023/05/30 06:58:58;;;;;;;4.97;1.80;;;17.80;99.90;;;;;;5064154;28;20172;-69
2023/05/30 07:01:26;;;;;;;8.10;1.70;;;17.70;99.90;;;;;;5066820;28;20668;-70
2023/05/30 07:03:53;;;;;;;4.33;1.87;;;17.70;99.90;;;;;;5073921;28;20184;-67
2023/05/30 07:06:21;;;;;;;10.53;1.93;;;17.50;99.90;;;;;;5074514;28;20183;-70
2023/05/30 07:08:48;;;;;;;6.07;1.43;;;17.30;99.90;;;;;;5072738;28;20187;-70
2023/05/30 07:11:16;;;;;;;11.27;2.07;;;17.20;99.90;;;;;;5035298;28;20274;-70
2023/05/30 07:13:43;;;;;;;5.30;1.50;;;17.10;99.90;;;;;;5053751;28;20178;-71
2023/05/30 07:16:11;;;;;;;8.07;1.60;;;16.80;99.90;;;;;;5036717;28;20232;-70
2023/05/30 07:18:38;;;;;;;9.00;1.47;;;16.60;99.90;;;;;;5041418;28;20172;-69
2023/05/30 07:21:07;;;;;;;4.17;1.33;;;16.50;99.90;;;;;;5053481;28;20264;-69
2023/05/30 07:23:39;;;;;;;5.90;2.10;;;16.40;99.90;;;;;;5053455;28;20177;-69
2023/05/30 07:26:06;;;;;;;3.00;1.60;;;16.30;99.90;;;;;;5053422;28;20185;-69
2023/05/30 07:28:33;;;;;;;5.20;2.30;;;16.20;99.90;;;;;;5053090;28;20181;-70
2023/05/30 07:31:01;;;;;;;6.13;2.00;;;16.20;99.90;;;;;;5053156;28;20220;-70
2023/05/30 07:33:28;;;;;;;4.33;1.73;;;16.20;99.90;;;;;;5053268;28;20181;-70
2023/05/30 07:35:55;;;;;;;4.33;2.07;;;16.10;99.90;;;;;;5053432;28;20672;-70
2023/05/30 07:38:23;;;;;;;6.03;2.10;;;16.00;99.90;;;;;;5035448;28;20191;-70
2023/05/30 07:40:50;;;;;;;7.37;1.70;;;15.80;99.90;;;;;;5034961;28;20690;-70
2023/05/30 07:43:18;;;;;;;6.87;1.70;;;15.70;99.90;;;;;;5053103;28;20264;-70
2023/05/30 07:45:46;;;;;;;3.90;1.50;;;15.60;99.90;;;;;;5034713;28;20224;-69
2023/05/30 07:48:13;;;;;;;5.57;1.70;;;15.50;99.90;;;;;;5053199;28;20262;-69
2023/05/30 07:50:40;;;;;;;6.10;1.80;;;15.40;99.90;;;;;;5035164;28;20221;-69
2023/05/30 07:53:08;;;;;;;5.13;1.77;;;15.40;99.90;;;;;;5052615;28;20201;-69
2023/05/30 07:55:35;;;;;;;3.97;1.77;;;15.40;99.90;;;;;;5052964;28;20176;-69
2023/05/30 07:58:03;;;;;;;3.67;1.90;;;15.30;99.90;;;;;;5052606;28;20599;-70
2023/05/30 08:00:30;;;;;;;3.13;1.60;;;15.20;99.90;;;;;;5053059;28;20635;-69
2023/05/30 08:02:58;;;;;;;4.07;1.90;;;15.10;99.90;;;;;;5052978;28;20526;-69
2023/05/30 08:05:25;;;;;;;6.30;2.10;;;15.10;99.90;;;;;;5052648;28;20206;-69
2023/05/30 08:07:52;;;;;;;6.87;1.97;;;15.00;99.90;;;;;;5052865;28;20176;-70
2023/05/30 08:10:20;;;;;;;3.90;2.00;;;15.00;99.90;;;;;;5052872;28;20221;-69
2023/05/30 08:12:47;;;;;;;5.00;2.13;;;15.00;99.90;;;;;;5052637;28;20233;-70
2023/05/30 08:15:15;;;;;;;7.17;2.60;;;15.00;99.90;;;;;;5052605;28;20179;-70
2023/05/30 08:17:43;;;;;;;6.43;2.60;;;15.00;99.90;;;;;;5052593;28;20634;-70
2023/05/30 08:20:12;;;;;;;12.13;2.57;;;15.10;99.90;;;;;;5052844;28;20186;-70
2023/05/30 08:22:40;;;;;;;10.43;2.00;;;15.10;99.90;;;;;;5052621;28;20262;-70
2023/05/30 08:25:09;;;;;;;5.37;2.10;;;15.10;99.90;;;;;;5052496;28;20183;-70
2023/05/30 08:27:37;;;;;;;5.67;2.43;;;15.00;99.90;;;;;;5052398;28;20180;-70
2023/05/30 08:30:06;;;;;;;11.40;2.80;;;14.90;99.90;;;;;;5046990;28;20219;-70
2023/05/30 08:32:34;;;;;;;5.37;2.03;;;14.70;99.90;;;;;;5061300;28;20237;-70
2023/05/30 08:35:01;;;;;;;5.13;2.23;;;14.70;99.90;;;;;;5072310;28;20222;-69
2023/05/30 08:37:28;;;;;;;7.27;2.40;;;14.60;99.90;;;;;;5072170;28;20179;-70
2023/05/30 08:39:56;;;;;;;7.10;2.73;;;14.50;99.90;;;;;;5072218;28;20179;-69
2023/05/30 08:42:25;;;;;;;6.93;2.77;;;14.50;99.90;;;;;;5071912;28;20207;-70
2023/05/30 08:44:52;;;;;;;5.10;2.90;;;14.40;99.90;;;;;;5053745;28;20281;-70
2023/05/30 08:47:21;;;;;;;8.40;3.33;;;14.30;99.90;;;;;;5072227;28;20258;-70
2023/05/30 08:49:52;;;;;;;12.00;4.70;;;14.40;99.90;;;;;;5072007;28;20222;-70
2023/05/30 08:52:22;;;;;;;9.93;4.80;;;14.40;99.90;;;;;;5072045;28;20180;-70
2023/05/30 08:54:59;;;;;;;5.80;3.27;;;14.50;99.90;;;;;;5071748;28;20317;-69
2023/05/30 08:57:49;;;;;;;5.93;3.53;;;14.50;99.90;;;;;;5071783;28;20179;-70
2023/05/30 09:00:17;;;;;;;6.83;3.77;;;14.50;99.90;;;;;;5027214;28;20245;-70
2023/05/30 09:02:45;;;;;;;7.20;2.97;;;14.40;99.90;;;;;;5071822;28;20177;-70
2023/05/30 09:05:15;;;;;;;10.23;2.70;;;14.20;99.90;;;;;;5071067;28;20176;-70
2023/05/30 09:07:47;;;;;;;8.80;2.73;;;14.10;99.90;;;;;;5071568;28;20197;-70
2023/05/30 09:10:16;;;;;;;9.03;3.00;;;14.00;99.90;;;;;;5071752;28;20210;-70
2023/05/30 09:12:44;;;;;;;6.73;3.13;;;13.90;99.90;;;;;;5071463;28;20175;-70
2023/05/30 09:15:11;;;;;;;6.27;2.20;;;13.80;99.90;;;;;;5071750;28;20240;-70
2023/05/30 09:17:39;;;;;;;3.67;2.30;;;13.70;99.90;;;;;;5045475;28;20180;-70
2023/05/30 09:20:08;;;;;;;5.83;2.17;;;13.70;99.90;;;;;;5051122;28;20190;-70
2023/05/30 09:22:36;;;;;;;3.50;2.00;;;13.70;99.90;;;;;;5051513;28;20172;-70
2023/05/30 09:25:05;;;;;;;7.63;2.50;;;13.60;99.90;;;;;;5051547;28;20184;-70
2023/05/30 09:27:37;;;;;;;3.37;2.17;;;13.60;99.90;;;;;;5051459;28;20199;-70
2023/05/30 09:30:10;;;;;;;5.33;1.87;;;13.40;99.90;;;;;;5051279;28;20201;-70
2023/05/30 09:32:38;;;;;;;5.17;1.60;;;13.40;99.90;;;;;;5051462;28;20188;-70
2023/05/30 09:35:09;;;;;;;6.20;1.90;;;13.50;99.90;;;;;;5051446;28;20657;-70
2023/05/30 09:37:41;;;;;;;11.10;5.80;;;13.60;99.90;;;;;;5051421;28;20175;-70
2023/05/30 09:40:15;;;;;;;4.50;3.17;;;13.60;99.90;;;;;;5051365;28;20187;-69
2023/05/30 09:42:49;;;;;;;9.63;3.50;;;13.50;99.90;;;;;;5033331;28;20189;-70
2023/05/30 09:45:20;;;;;;;16.27;8.63;;;13.30;99.90;;;;;;5051387;28;20232;-70
2023/05/30 09:47:49;;;;;;;14.53;8.40;;;13.20;99.90;;;;;;5051088;28;20252;-70
2023/05/30 09:50:19;;;;;;;8.20;5.67;;;13.10;99.90;;;;;;5051074;28;20222;-70
2023/05/30 09:52:51;;;;;;;10.57;5.27;;;13.00;99.90;;;;;;5033935;28;20245;-70
2023/05/30 09:55:19;;;;;;;7.50;4.40;;;12.90;99.90;;;;;;5051251;28;20190;-70
2023/05/30 09:57:48;;;;;;;10.63;4.73;;;12.80;99.90;;;;;;5051419;28;20264;-70
2023/05/30 10:00:31;;;;;;;6.43;2.70;;;12.80;99.90;;;;;;5051101;28;20317;-70
2023/05/30 10:02:58;;;;;;;6.03;2.67;;;12.70;99.90;;;;;;5051050;28;20186;-70
2023/05/30 10:05:28;;;;;;;6.20;2.73;;;12.70;99.90;;;;;;5033142;28;20191;-70
2023/05/30 10:07:57;;;;;;;5.33;2.53;;;12.60;99.90;;;;;;5051020;28;20613;-70
2023/05/30 10:10:25;;;;;;;5.17;2.37;;;12.50;99.90;;;;;;5051260;28;20214;-70
2023/05/30 10:12:54;;;;;;;5.17;2.03;;;12.50;99.90;;;;;;5051130;28;20172;-70
2023/05/30 10:15:25;;;;;;;3.33;2.30;;;12.50;99.90;;;;;;5052184;28;20184;-70
2023/05/30 10:17:58;;;;;;;3.77;2.07;;;12.40;99.90;;;;;;5055025;28;20628;-71
2023/05/30 10:20:28;;;;;;;10.37;2.50;;;12.50;99.90;;;;;;5054697;28;20187;-70
2023/05/30 10:22:57;;;;;;;6.17;2.70;;;12.50;99.90;;;;;;5054809;28;20602;-71
2023/05/30 10:25:28;;;;;;;8.33;2.17;;;12.40;99.90;;;;;;5054943;28;20592;-70
2023/05/30 10:28:01;;;;;;;10.13;2.67;;;12.40;99.90;;;;;;5054737;28;20183;-70
2023/05/30 10:30:30;;;;;;;5.73;2.83;;;12.20;99.90;;;;;;5055221;28;20250;-70
2023/05/30 10:33:08;;;;;;;5.07;3.03;;;12.20;99.90;;;;;;5055267;28;20296;-69
2023/05/30 10:35:35;;;;;;;7.30;3.40;;;12.10;99.90;;;;;;5054677;28;20277;-70
2023/05/30 10:38:06;;;;;;;5.33;2.47;;;12.00;99.90;;;;;;5054526;28;20596;-69
2023/05/30 10:40:49;;;;;;;6.23;2.60;;;12.00;99.90;;;;;;5054539;28;20661;-70
2023/05/30 10:43:46;;;;;;;4.87;2.30;;;12.00;99.90;;;;;;5054518;28;20215;-69
2023/05/30 10:46:22;;;;;;;3.83;1.77;;;12.00;99.90;;;;;;4983275;28;20214;-69
2023/05/30 10:49:03;;;;;;;6.27;2.00;;;11.90;99.90;;;;;;5054377;28;20205;-69
2023/05/30 10:51:31;;;;;;;3.40;2.27;;;11.80;99.90;;;;;;5054250;28;20246;-69
2023/05/30 10:53:59;;;;;;;6.63;2.87;;;11.60;99.90;;;;;;5054044;28;20178;-69
2023/05/30 10:56:32;;;;;;;5.03;2.03;;;11.50;99.90;;;;;;5054066;28;20185;-69
2023/05/30 10:59:02;;;;;;;6.13;2.53;;;11.60;99.90;;;;;;5054314;28;20228;-70
2023/05/30 11:01:33;;;;;;;8.97;2.50;;;11.50;99.90;;;;;;5054358;28;20203;-71
2023/05/30 11:04:13;;;;;;;6.73;2.87;;;11.60;99.90;;;;;;5045748;28;20175;-70
2023/05/30 11:06:45;;;;;;;6.23;3.43;;;11.50;99.90;;;;;;5054153;28;20554;-70
2023/05/30 11:09:14;;;;;;;7.07;2.97;;;11.50;99.90;;;;;;5053744;28;20191;-70
2023/05/30 11:11:56;;;;;;;5.47;3.40;;;11.40;99.90;;;;;;5053856;28;20221;-70
2023/05/30 11:14:35;;;;;;;7.83;3.30;;;11.40;99.90;;;;;;5053850;28;20617;-70
2023/05/30 11:17:08;;;;;;;8.00;3.00;;;11.30;99.90;;;;;;5053901;28;20199;-70
2023/05/30 11:19:40;;;;;;;9.70;3.00;;;11.30;99.90;;;;;;5069391;28;20188;-69
2023/05/30 11:22:17;;;;;;;7.27;3.40;;;11.20;99.90;;;;;;5073585;28;20177;-70
2023/05/30 11:24:45;;;;;;;9.30;4.50;;;11.20;99.90;;;;;;5054450;28;20209;-69
2023/05/30 11:27:15;;;;;;;6.87;3.67;;;11.20;99.90;;;;;;5028830;28;20179;-70
2023/05/30 11:29:55;;;;;;;8.03;4.03;;;11.10;99.90;;;;;;5052936;28;20191;-69
2023/05/30 11:32:25;;;;;;;11.10;4.67;;;11.00;99.90;;;;;;5053269;28;20293;-69
2023/05/30 11:35:06;;;;;;;9.43;4.50;;;11.00;99.90;;;;;;5053209;28;20248;-69
2023/05/30 11:37:35;;;;;;;7.43;3.90;;;11.00;99.90;;;;;;5052276;28;20185;-69
2023/05/30 11:40:12;;;;;;;7.20;4.50;;;10.90;99.90;;;;;;5053007;28;20215;-69
2023/05/30 11:42:39;;;;;;;9.20;4.47;;;10.80;99.90;;;;;;5052845;28;21023;-70
2023/05/30 11:45:09;;;;;;;9.77;4.63;;;10.80;99.90;;;;;;5052266;28;20222;-69
2023/05/30 11:47:36;;;;;;;9.60;4.10;;;10.70;99.90;;;;;;5052417;28;20178;-70
2023/05/30 11:50:04;;;;;;;8.27;4.33;;;10.60;99.90;;;;;;5052804;28;20209;-70
2023/05/30 11:52:39;;;;;;;8.37;4.23;;;10.60;99.90;;;;;;5052547;28;20181;-70
2023/05/30 11:55:07;;;;;;;7.70;3.77;;;10.60;99.90;;;;;;5052586;28;20226;-69
2023/05/30 11:57:35;;;;;;;7.87;4.30;;;10.60;99.90;;;;;;5052283;28;20538;-69
2023/05/30 12:00:08;;;;;;;7.53;4.50;;;10.70;99.90;;;;;;5051098;28;20182;-70
2023/05/30 12:02:35;;;;;;;9.73;4.60;;;10.70;99.90;;;;;;5052380;28;20220;-69
2023/05/30 12:05:03;;;;;;;10.23;4.67;;;10.70;99.90;;;;;;5015097;28;20195;-70
2023/05/30 12:07:32;;;;;;;9.23;4.80;;;10.80;99.90;;;;;;5031474;28;20690;-69
2023/05/30 12:09:59;;;;;;;9.60;5.13;;;10.70;99.90;;;;;;5031436;28;20217;-69
2023/05/30 12:12:27;;;;;;;9.20;4.37;;;10.70;99.90;;;;;;5040116;28;20204;-70
2023/05/30 12:15:05;;;;;;;10.17;4.50;;;10.60;99.90;;;;;;5052034;28;20201;-70
2023/05/30 12:17:33;;;;;;;14.33;4.43;;;10.60;99.90;;;;;;5052396;28;20249;-69
2023/05/30 12:20:09;;;;;;;11.30;4.13;;;10.60;99.90;;;;;;5052473;28;20179;-70
2023/05/30 12:22:41;;;;;;;13.23;4.37;;;10.50;99.90;;;;;;5034203;28;20194;-69
2023/05/30 12:25:09;;;;;;;11.40;4.57;;;10.40;99.90;;;;;;5052349;28;20197;-69
2023/05/30 12:27:41;;;;;;;10.90;4.50;;;10.40;99.90;;;;;;5034193;28;20549;-70
2023/05/30 12:30:15;;;;;;;10.40;4.07;;;10.40;99.90;;;;;;5051890;28;20598;-70
2023/05/30 12:32:42;;;;;;;8.23;4.07;;;10.40;99.90;;;;;;5051920;28;20191;-69
2023/05/30 12:35:11;;;;;;;8.97;4.00;;;10.40;99.90;;;;;;5052197;28;20566;-70
2023/05/30 12:37:38;;;;;;;6.17;3.63;;;10.40;99.90;;;;;;5051553;28;20640;-70
2023/05/30 12:40:07;;;;;;;10.27;4.37;;;10.30;99.90;;;;;;5052166;28;20313;-70
2023/05/30 12:42:36;;;;;;;7.23;3.97;;;10.20;99.90;;;;;;5051225;28;20185;-69
2023/05/30 12:48:25;;;;;;;7.17;4.17;;;10.20;99.90;;;;;;5051321;28;20185;-69
2023/05/30 12:50:53;;;;;;;11.07;5.27;;;10.20;99.90;;;;;;5033740;28;20220;-69
2023/05/30 12:53:21;;;;;;;16.20;5.47;;;10.30;99.90;;;;;;5051314;28;20275;-69
2023/05/30 12:55:49;;;;;;;10.83;6.13;;;10.20;99.90;;;;;;5051589;28;20198;-69
2023/05/30 12:58:17;;;;;;;14.60;6.53;;;10.20;99.90;;;;;;5051775;28;20213;-69
2023/05/30 13:00:44;;;;;;;16.13;6.47;;;10.20;99.90;;;;;;5051126;28;20177;-69
2023/05/30 13:03:17;;;;;;;31.97;14.90;;;10.10;99.90;;;;;;5051444;28;20232;-69
2023/05/30 13:05:47;;;;;;;35.57;18.33;;;10.00;99.90;;;;;;5051286;28;20195;-69
2023/05/30 13:08:15;;;;;;;16.83;7.57;;;10.00;99.90;;;;;;5050954;28;20181;-69
2023/05/30 13:10:43;;;;;;;24.63;11.73;;;10.00;99.90;;;;;;5051136;28;20214;-69
2023/05/30 13:13:11;;;;;;;24.00;12.27;;;10.10;99.90;;;;;;5050958;28;20266;-69
2023/05/30 13:15:39;;;;;;;6.37;4.00;;;10.00;99.90;;;;;;5051448;28;20706;-69